createdAt,value
2019-05-19T00:01:36.244Z,47.37
2019-05-19T00:04:10.052Z,49.40
2019-05-19T00:06:40.334Z,50.43
2019-05-19T00:09:10.379Z,49.07
2019-05-19T00:11:40.466Z,57.60
2019-05-19T00:14:10.879Z,55.93
2019-05-19T00:16:40.980Z,55.90
2019-05-19T00:19:25.892Z,54.67
2019-05-19T00:21:44.623Z,53.40
2019-05-19T00:24:14.753Z,51.67
2019-05-19T00:26:44.875Z,55.37
2019-05-19T00:29:14.936Z,57.70
2019-05-19T00:31:45.161Z,55.20
2019-05-19T00:34:15.360Z,57.60
2019-05-19T00:36:45.547Z,55.93
2019-05-19T00:39:15.719Z,56.83
2019-05-19T00:41:45.870Z,54.43
2019-05-19T00:44:17.307Z,55.63
2019-05-19T00:46:47.705Z,58.20
2019-05-19T00:49:17.922Z,55.83
2019-05-19T00:51:48.219Z,58.97
2019-05-19T00:54:18.837Z,53.97
2019-05-19T00:56:50.211Z,59.20
2019-05-19T00:59:24.531Z,58.07
2019-05-19T01:01:54.660Z,58.90
2019-05-19T01:04:24.810Z,58.63
2019-05-19T01:06:54.947Z,56.27
2019-05-19T01:09:26.151Z,55.97
2019-05-19T01:11:57.639Z,58.43
2019-05-19T01:14:30.556Z,58.37
2019-05-19T01:17:00.660Z,62.43
2019-05-19T01:19:30.961Z,59.17
2019-05-19T01:22:02.018Z,58.00
2019-05-19T01:24:32.082Z,57.70
2019-05-19T01:27:02.310Z,61.10
2019-05-19T01:29:32.522Z,61.20
2019-05-19T01:32:02.832Z,62.53
2019-05-19T01:34:32.968Z,62.73
2019-05-19T01:37:05.194Z,59.70
2019-05-19T01:39:35.349Z,56.90
2019-05-19T01:42:05.497Z,59.77
2019-05-19T01:44:38.992Z,63.27
2019-05-19T01:47:09.165Z,60.30
2019-05-19T01:49:39.209Z,64.00
2019-05-19T01:52:09.388Z,63.30
2019-05-19T01:54:39.428Z,63.63
2019-05-19T01:57:09.572Z,60.97
2019-05-19T01:59:39.631Z,63.37
2019-05-19T02:02:10.434Z,58.70
2019-05-19T02:04:40.668Z,58.13
2019-05-19T02:07:10.835Z,59.07
2019-05-19T02:09:40.870Z,61.77
2019-05-19T02:12:11.154Z,60.63
2019-05-19T02:14:41.230Z,62.63
2019-05-19T02:17:12.399Z,59.80
2019-05-19T02:19:42.579Z,59.80
2019-05-19T02:22:12.709Z,61.20
2019-05-19T02:24:42.789Z,61.80
2019-05-19T02:27:12.976Z,60.30
2019-05-19T02:29:43.066Z,58.33
2019-05-19T02:32:14.135Z,58.40
2019-05-19T02:34:46.121Z,58.20
2019-05-19T02:37:16.940Z,61.03
2019-05-19T02:39:47.096Z,63.50
2019-05-19T02:42:19.358Z,61.63
2019-05-19T02:44:50.604Z,60.50
2019-05-19T02:47:23.079Z,62.17
2019-05-19T02:49:55.091Z,60.23
2019-05-19T02:52:28.276Z,61.23
2019-05-19T02:55:00.353Z,63.10
2019-05-19T02:57:32.198Z,60.47
2019-05-19T03:00:02.770Z,64.43
2019-05-19T03:02:33.468Z,62.57
2019-05-19T03:05:04.190Z,60.33
2019-05-19T03:07:34.879Z,63.10
2019-05-19T03:10:05.303Z,68.73
2019-05-19T03:12:35.473Z,66.67
2019-05-19T03:15:08.466Z,66.87
2019-05-19T03:17:38.623Z,70.97
2019-05-19T03:20:08.743Z,68.23
2019-05-19T03:22:40.438Z,71.17
2019-05-19T03:25:11.101Z,68.90
2019-05-19T03:27:41.271Z,68.27
2019-05-19T03:30:32.444Z,74.40
2019-05-19T03:33:04.045Z,69.70
2019-05-19T03:35:34.296Z,71.43
2019-05-19T03:38:04.516Z,65.03
2019-05-19T03:40:34.727Z,67.97
2019-05-19T03:43:05.160Z,74.60
2019-05-19T03:45:35.391Z,71.70
2019-05-19T03:48:08.019Z,69.57
2019-05-19T03:50:38.158Z,68.50
2019-05-19T03:53:08.259Z,69.33
2019-05-19T03:55:38.816Z,70.33
2019-05-19T03:58:09.304Z,73.77
2019-05-19T04:00:39.464Z,72.33
2019-05-19T04:03:09.640Z,71.27
2019-05-19T04:05:39.782Z,67.17
2019-05-19T04:08:09.956Z,75.03
2019-05-19T04:10:50.126Z,66.50
2019-05-19T04:13:20.208Z,64.57
2019-05-19T04:15:50.452Z,68.93
2019-05-19T04:18:20.612Z,65.87
2019-05-19T04:20:50.788Z,66.07
2019-05-19T04:23:41.611Z,66.37
2019-05-19T04:26:11.740Z,64.53
2019-05-19T04:28:43.598Z,62.17
2019-05-19T04:31:13.732Z,61.77
2019-05-19T04:33:43.841Z,64.33
2019-05-19T04:36:13.962Z,62.67
2019-05-19T04:38:44.066Z,70.60
2019-05-19T04:41:14.131Z,63.83
2019-05-19T04:43:44.455Z,65.07
2019-05-19T04:46:14.617Z,65.67
2019-05-19T04:48:44.877Z,67.23
2019-05-19T04:51:15.697Z,63.47
2019-05-19T04:53:45.885Z,65.10
2019-05-19T04:56:19.737Z,69.00
2019-05-19T04:58:48.822Z,68.07
2019-05-19T05:01:18.877Z,66.60
2019-05-19T05:03:49.075Z,65.70
2019-05-19T05:06:19.998Z,65.93
2019-05-19T05:08:50.190Z,61.27
2019-05-19T05:11:20.513Z,67.13
2019-05-19T05:13:50.723Z,62.47
2019-05-19T05:16:23.964Z,59.47
2019-05-19T05:18:54.585Z,64.47
2019-05-19T05:21:24.738Z,64.07
2019-05-19T05:23:54.953Z,66.43
2019-05-19T05:26:26.578Z,64.97
2019-05-19T05:28:56.770Z,62.03
2019-05-19T05:31:26.923Z,63.03
2019-05-19T05:33:57.122Z,63.27
2019-05-19T05:36:27.814Z,62.80
2019-05-19T05:38:58.306Z,64.00
2019-05-19T05:41:28.603Z,60.63
2019-05-19T05:43:59.380Z,62.87
2019-05-19T05:46:29.505Z,60.63
2019-05-19T05:48:59.769Z,63.77
2019-05-19T05:51:29.811Z,63.70
2019-05-19T05:54:01.058Z,61.67
2019-05-19T05:56:31.097Z,59.70
2019-05-19T05:59:03.110Z,60.17
2019-05-19T06:01:35.839Z,60.30
2019-05-19T06:04:06.046Z,60.23
2019-05-19T06:06:36.118Z,59.47
2019-05-19T06:09:07.382Z,58.93
2019-05-19T06:11:37.474Z,60.97
2019-05-19T06:14:07.645Z,61.57
2019-05-19T06:16:37.781Z,59.13
2019-05-19T06:19:07.950Z,63.77
2019-05-19T06:21:38.038Z,62.60
2019-05-19T06:24:08.216Z,62.60
2019-05-19T06:26:38.275Z,64.23
2019-05-19T06:29:10.214Z,64.57
2019-05-19T06:31:40.481Z,62.40
2019-05-19T06:34:10.720Z,64.73
2019-05-19T06:36:40.878Z,63.70
2019-05-19T06:39:11.146Z,62.60
2019-05-19T06:41:41.340Z,62.43
2019-05-19T06:44:11.924Z,67.00
2019-05-19T06:46:42.164Z,63.73
2019-05-19T06:49:12.406Z,63.47
2019-05-19T06:51:43.034Z,62.57
2019-05-19T06:54:13.332Z,59.37
2019-05-19T06:56:45.004Z,63.63
2019-05-19T06:59:15.197Z,62.47
2019-05-19T07:01:45.404Z,61.30
2019-05-19T07:04:15.784Z,62.30
2019-05-19T07:06:49.869Z,60.90
2019-05-19T07:09:20.045Z,64.60
2019-05-19T07:11:52.978Z,60.20
2019-05-19T07:14:23.190Z,63.97
2019-05-19T07:16:58.799Z,62.60
2019-05-19T07:19:30.464Z,63.30
2019-05-19T07:22:00.840Z,64.27
2019-05-19T07:24:30.975Z,62.67
2019-05-19T07:27:01.143Z,62.87
2019-05-19T07:29:34.354Z,60.63
2019-05-19T07:32:04.541Z,63.13
2019-05-19T07:34:36.109Z,63.23
2019-05-19T07:37:06.281Z,59.93
2019-05-19T07:39:36.644Z,61.23
2019-05-19T07:42:10.095Z,62.73
2019-05-19T07:44:40.278Z,61.97
2019-05-19T07:47:10.509Z,62.13
2019-05-19T07:49:43.161Z,61.17
2019-05-19T07:52:13.325Z,63.03
2019-05-19T07:54:43.735Z,63.27
2019-05-19T07:57:14.021Z,62.80
2019-05-19T07:59:45.475Z,61.37
2019-05-19T08:02:15.653Z,61.10
2019-05-19T08:04:45.858Z,58.03
2019-05-19T08:07:16.091Z,58.73
2019-05-19T08:09:46.254Z,56.07
2019-05-19T08:12:16.563Z,55.77
2019-05-19T08:14:46.925Z,59.90
2019-05-19T08:17:17.170Z,61.80
2019-05-19T08:19:49.516Z,64.07
2019-05-19T08:22:19.734Z,62.77
2019-05-19T08:24:49.873Z,61.80
2019-05-19T08:27:20.023Z,61.27
2019-05-19T08:29:50.306Z,58.60
2019-05-19T08:32:23.154Z,57.63
2019-05-19T08:34:53.667Z,57.80
2019-05-19T08:37:23.924Z,56.60
2019-05-19T08:39:54.084Z,55.87
2019-05-19T08:42:25.865Z,56.40
2019-05-19T08:44:56.016Z,55.53
2019-05-19T08:47:26.569Z,57.67
2019-05-19T08:49:56.768Z,57.33
2019-05-19T08:52:27.321Z,59.07
2019-05-19T08:54:57.694Z,58.40
2019-05-19T08:57:28.190Z,55.97
2019-05-19T08:59:58.375Z,57.93
2019-05-19T09:02:28.624Z,58.53
2019-05-19T09:04:58.827Z,58.70
2019-05-19T09:07:29.004Z,58.57
2019-05-19T09:10:02.114Z,57.53
2019-05-19T09:12:33.938Z,56.70
2019-05-19T09:15:04.862Z,56.83
2019-05-19T09:17:35.610Z,57.87
2019-05-19T09:20:05.871Z,55.33
2019-05-19T09:22:38.328Z,56.50
2019-05-19T09:25:10.186Z,55.73
2019-05-19T09:27:40.588Z,54.43
2019-05-19T09:30:11.485Z,54.30
2019-05-19T09:32:42.467Z,55.57
2019-05-19T09:35:12.867Z,53.43
2019-05-19T09:37:43.067Z,54.30
2019-05-19T09:40:14.615Z,52.70
2019-05-19T09:42:48.483Z,50.03
2019-05-19T09:45:19.989Z,50.47
2019-05-19T09:47:50.173Z,50.90
2019-05-19T09:50:20.441Z,50.30
2019-05-19T09:52:53.407Z,51.80
2019-05-19T09:55:23.610Z,49.07
2019-05-19T09:57:53.706Z,49.50
2019-05-19T10:00:24.299Z,48.13
2019-05-19T10:02:56.208Z,48.57
2019-05-19T10:05:26.418Z,48.60
2019-05-19T10:07:56.471Z,49.97
2019-05-19T10:11:01.288Z,48.67
2019-05-19T10:13:31.658Z,47.57
2019-05-19T10:16:04.525Z,43.63
2019-05-19T10:18:34.848Z,45.13
2019-05-19T10:21:05.166Z,44.97
2019-05-19T10:23:35.327Z,46.07
2019-05-19T10:26:05.668Z,45.07
2019-05-19T10:28:35.867Z,41.97
2019-05-19T10:31:06.386Z,44.33
2019-05-19T10:33:37.375Z,44.57
2019-05-19T10:36:07.597Z,41.03
2019-05-19T10:38:41.406Z,42.33
2019-05-19T10:41:11.650Z,43.40
2019-05-19T10:43:41.746Z,41.80
2019-05-19T10:46:14.450Z,39.97
2019-05-19T10:48:44.727Z,38.70
2019-05-19T10:51:14.954Z,40.40
2019-05-19T10:53:46.967Z,40.50
2019-05-19T10:56:19.123Z,43.20
2019-05-19T10:58:49.626Z,39.80
2019-05-19T11:01:20.159Z,38.43
2019-05-19T11:03:50.362Z,39.77
2019-05-19T11:06:20.611Z,38.57
2019-05-19T11:08:50.690Z,39.40
2019-05-19T11:11:20.869Z,39.70
2019-05-19T11:13:51.486Z,38.87
2019-05-19T11:16:22.387Z,39.17
2019-05-19T11:18:52.541Z,39.63
2019-05-19T11:21:22.724Z,40.03
2019-05-19T11:23:55.894Z,35.57
2019-05-19T11:26:26.023Z,37.23
2019-05-19T11:28:56.458Z,34.30
2019-05-19T11:31:27.493Z,33.93
2019-05-19T11:33:57.631Z,35.83
2019-05-19T11:36:28.030Z,33.33
2019-05-19T11:38:59.591Z,31.57
2019-05-19T11:41:29.772Z,33.33
2019-05-19T11:44:02.355Z,29.90
2019-05-19T11:46:32.527Z,33.13
2019-05-19T11:49:04.161Z,33.13
2019-05-19T11:51:34.998Z,31.00
2019-05-19T11:54:05.369Z,32.87
2019-05-19T11:56:45.481Z,31.63
2019-05-19T11:59:15.879Z,31.67
2019-05-19T12:01:46.342Z,32.70
2019-05-19T12:04:16.429Z,33.80
2019-05-19T12:06:47.180Z,35.70
2019-05-19T12:09:18.144Z,34.30
2019-05-19T12:11:51.598Z,33.93
2019-05-19T12:14:23.302Z,35.57
2019-05-19T12:16:55.841Z,35.63
2019-05-19T12:19:26.141Z,36.87
2019-05-19T12:21:56.279Z,35.03
2019-05-19T12:24:26.335Z,34.60
2019-05-19T12:26:58.976Z,34.07
2019-05-19T12:29:28.685Z,35.30
2019-05-19T12:31:58.827Z,37.80
2019-05-19T12:34:28.877Z,34.30
2019-05-19T12:36:58.968Z,36.37
2019-05-19T12:39:30.647Z,37.33
2019-05-19T12:42:00.845Z,35.97
2019-05-19T12:44:30.986Z,35.30
2019-05-19T12:47:01.705Z,38.87
2019-05-19T12:49:31.758Z,40.13
2019-05-19T12:52:02.053Z,39.83
2019-05-19T12:54:33.171Z,39.97
2019-05-19T12:57:03.383Z,38.63
2019-05-19T12:59:33.540Z,35.83
2019-05-19T13:02:03.714Z,35.90
2019-05-19T13:04:33.943Z,37.83
2019-05-19T13:07:04.330Z,40.80
2019-05-19T13:09:35.388Z,39.60
2019-05-19T13:12:05.843Z,37.97
2019-05-19T13:14:36.338Z,36.77
2019-05-19T13:17:08.865Z,38.67
2019-05-19T13:19:39.122Z,40.50
2019-05-19T13:22:11.379Z,41.73
2019-05-19T13:24:41.445Z,41.80
2019-05-19T13:27:11.573Z,38.77
2019-05-19T13:29:41.926Z,40.07
2019-05-19T13:32:12.000Z,37.50
2019-05-19T13:34:42.189Z,39.77
2019-05-19T13:37:12.390Z,34.60
2019-05-19T13:39:42.480Z,42.87
2019-05-19T13:42:12.772Z,37.63
2019-05-19T13:44:42.859Z,38.40
2019-05-19T13:47:13.015Z,37.87
2019-05-19T13:49:43.081Z,39.27
2019-05-19T13:52:13.249Z,41.13
2019-05-19T13:54:43.686Z,43.20
2019-05-19T13:57:14.106Z,42.30
2019-05-19T13:59:44.667Z,44.13
2019-05-19T14:02:15.628Z,48.70
2019-05-19T14:04:45.848Z,48.50
2019-05-19T14:07:16.214Z,47.63
2019-05-19T14:09:46.501Z,50.67
2019-05-19T14:12:18.310Z,50.87
2019-05-19T14:14:48.532Z,52.33
2019-05-19T14:17:18.714Z,47.90
2019-05-19T14:19:48.807Z,47.90
2019-05-19T14:22:19.109Z,48.83
2019-05-19T14:24:49.399Z,47.67
2019-05-19T14:27:29.295Z,41.33
2019-05-19T14:29:52.613Z,43.60
2019-05-19T14:32:23.740Z,38.27
2019-05-19T14:34:53.993Z,39.13
2019-05-19T14:37:24.394Z,38.77
2019-05-19T14:39:54.969Z,40.27
2019-05-19T14:42:46.515Z,43.27
2019-05-19T14:45:17.018Z,40.03
2019-05-19T14:47:47.481Z,40.40
2019-05-19T14:50:18.528Z,43.73
2019-05-19T14:52:48.726Z,44.43
2019-05-19T14:55:18.974Z,43.33
2019-05-19T14:57:49.531Z,43.57
2019-05-19T15:00:21.080Z,47.67
2019-05-19T15:02:51.279Z,45.37
2019-05-19T15:05:21.375Z,48.23
2019-05-19T15:07:51.541Z,49.17
2019-05-19T15:10:21.616Z,49.17
2019-05-19T15:12:53.786Z,48.23
2019-05-19T15:15:23.937Z,48.80
2019-05-19T15:17:54.286Z,47.80
2019-05-19T15:20:24.475Z,46.00
2019-05-19T15:22:54.833Z,50.03
2019-05-19T15:25:25.116Z,51.33
2019-05-19T15:28:00.192Z,50.83
2019-05-19T15:30:27.361Z,53.37
2019-05-19T15:32:57.544Z,57.13
2019-05-19T15:35:27.892Z,57.57
2019-05-19T15:37:57.990Z,58.00
2019-05-19T15:40:28.173Z,58.67
2019-05-19T15:42:58.362Z,59.30
2019-05-19T15:45:28.553Z,62.20
2019-05-19T15:47:58.761Z,59.83
2019-05-19T15:50:28.926Z,63.93
2019-05-19T15:52:59.161Z,41.50
2019-05-19T15:55:29.482Z,18.17
2019-05-19T15:58:14.206Z,10.13
2019-05-19T16:00:31.642Z,9.63
2019-05-19T16:03:02.255Z,10.37
2019-05-19T16:05:32.404Z,8.97
2019-05-19T16:08:02.574Z,7.10
2019-05-19T16:10:32.630Z,8.00
2019-05-19T16:13:02.746Z,8.90
2019-05-19T16:15:32.852Z,10.07
2019-05-19T16:18:03.174Z,10.90
2019-05-19T16:20:33.329Z,10.97
2019-05-19T16:23:03.523Z,10.80
2019-05-19T16:25:33.699Z,11.60
2019-05-19T16:28:03.951Z,10.87
2019-05-19T16:30:34.081Z,11.10
2019-05-19T16:33:04.285Z,10.90
2019-05-19T16:35:34.426Z,11.30
2019-05-19T16:38:04.849Z,11.00
2019-05-19T16:40:35.083Z,12.03
2019-05-19T16:43:05.263Z,13.13
2019-05-19T16:45:35.385Z,16.13
2019-05-19T16:48:05.780Z,21.23
2019-05-19T16:50:35.863Z,28.07
2019-05-19T16:53:06.103Z,38.30
2019-05-19T16:55:36.345Z,49.47
2019-05-19T16:58:20.139Z,56.90
2019-05-19T17:00:38.668Z,63.63
2019-05-19T17:03:08.823Z,68.57
2019-05-19T17:05:38.895Z,69.40
2019-05-19T17:08:09.065Z,75.97
2019-05-19T17:10:39.412Z,78.03
2019-05-19T17:13:09.646Z,76.50
2019-05-19T17:15:39.842Z,80.47
2019-05-19T17:18:09.938Z,83.97
2019-05-19T17:20:40.205Z,81.43
2019-05-19T17:23:10.391Z,78.77
2019-05-19T17:25:40.504Z,80.73
2019-05-19T17:28:10.710Z,83.97
2019-05-19T17:30:40.820Z,83.97
2019-05-19T17:33:11.282Z,80.97
2019-05-19T17:35:41.762Z,88.40
2019-05-19T17:38:12.411Z,82.77
2019-05-19T17:40:42.587Z,86.30
2019-05-19T17:43:12.776Z,89.87
2019-05-19T17:45:43.082Z,86.33
2019-05-19T17:48:25.720Z,85.07
2019-05-19T17:50:45.039Z,87.45
2019-05-19T17:53:15.197Z,77.77
2019-05-19T17:55:46.664Z,77.37
2019-05-19T17:58:17.131Z,78.13
2019-05-19T18:00:47.359Z,79.13
2019-05-19T18:03:17.659Z,76.20
2019-05-19T18:05:47.756Z,79.33
2019-05-19T18:08:17.954Z,76.67
2019-05-19T18:10:48.108Z,75.57
2019-05-19T18:13:18.322Z,70.73
2019-05-19T18:15:48.463Z,72.47
2019-05-19T18:18:18.733Z,72.77
2019-05-19T18:20:48.878Z,73.80
2019-05-19T18:23:19.033Z,71.53
2019-05-19T18:25:49.267Z,71.63
2019-05-19T18:28:19.442Z,72.23
2019-05-19T18:30:49.592Z,71.40
2019-05-19T18:33:19.729Z,72.23
2019-05-19T18:35:49.836Z,69.50
2019-05-19T18:38:20.077Z,73.60
2019-05-19T18:40:50.313Z,75.80
2019-05-19T18:43:20.595Z,73.90
2019-05-19T18:45:50.702Z,73.87
2019-05-19T18:48:23.287Z,75.77
2019-05-19T18:50:53.142Z,72.33
2019-05-19T18:53:23.511Z,73.53
2019-05-19T18:55:53.897Z,71.60
2019-05-19T18:58:24.081Z,74.70
2019-05-19T19:00:54.234Z,73.00
2019-05-19T19:03:24.447Z,73.57
2019-05-19T19:05:55.379Z,75.07
2019-05-19T19:08:25.684Z,79.13
2019-05-19T19:10:56.300Z,77.20
2019-05-19T19:13:26.519Z,77.90
2019-05-19T19:15:56.795Z,78.13
2019-05-19T19:18:27.006Z,73.87
2019-05-19T19:20:57.493Z,75.00
2019-05-19T19:23:27.829Z,76.20
2019-05-19T19:25:58.078Z,71.13
2019-05-19T19:28:28.455Z,70.93
2019-05-19T19:30:58.780Z,72.70
2019-05-19T19:33:30.702Z,67.30
2019-05-19T19:36:02.795Z,73.23
2019-05-19T19:38:33.054Z,76.27
2019-05-19T19:41:04.982Z,76.90
2019-05-19T19:43:35.220Z,75.33
2019-05-19T19:46:06.156Z,78.07
2019-05-19T19:48:36.740Z,80.80
2019-05-19T19:51:07.151Z,73.97
2019-05-19T19:53:38.033Z,80.03
2019-05-19T19:56:08.314Z,82.03
2019-05-19T19:58:38.899Z,85.23
2019-05-19T20:01:09.224Z,80.47
2019-05-19T20:03:40.625Z,78.00
2019-05-19T20:06:11.975Z,78.73
2019-05-19T20:08:42.153Z,79.10
2019-05-19T20:11:12.307Z,76.67
2019-05-19T20:13:42.582Z,80.80
2019-05-19T20:16:12.834Z,80.07
2019-05-19T20:18:43.847Z,76.90
2019-05-19T20:21:15.581Z,80.10
2019-05-19T20:23:45.935Z,82.07
2019-05-19T20:26:16.133Z,83.37
2019-05-19T20:28:46.580Z,84.73
2019-05-19T20:31:16.728Z,82.13
2019-05-19T20:33:46.973Z,80.27
2019-05-19T20:36:17.102Z,79.97
2019-05-19T20:38:47.327Z,79.97
2019-05-19T20:41:17.534Z,80.97
2019-05-19T20:43:47.857Z,79.57
2019-05-19T20:46:18.224Z,81.57
2019-05-19T20:48:48.508Z,76.50
2019-05-19T20:51:18.719Z,78.67
2019-05-19T20:53:49.020Z,78.73
2019-05-19T20:56:19.324Z,74.37
2019-05-19T20:58:49.573Z,75.37
2019-05-19T21:01:19.768Z,69.00
2019-05-19T21:03:50.460Z,69.77
2019-05-19T21:06:20.649Z,60.13
2019-05-19T21:08:50.895Z,54.70
2019-05-19T21:11:21.033Z,49.80
2019-05-19T21:13:51.411Z,49.47
2019-05-19T21:16:22.547Z,48.30
2019-05-19T21:18:52.726Z,48.67
2019-05-19T21:21:22.877Z,47.23
2019-05-19T21:23:53.046Z,47.77
2019-05-19T21:26:23.075Z,48.37
2019-05-19T21:28:53.155Z,47.17
2019-05-19T21:31:23.380Z,47.80
2019-05-19T21:33:53.625Z,50.13
2019-05-19T21:36:23.850Z,47.33
2019-05-19T21:38:54.034Z,48.13
2019-05-19T21:41:24.150Z,47.83
2019-05-19T21:43:54.656Z,49.17
2019-05-19T21:46:24.930Z,48.23
2019-05-19T21:48:55.233Z,47.70
2019-05-19T21:51:26.278Z,48.17
2019-05-19T21:53:56.383Z,48.10
2019-05-19T21:56:26.486Z,50.60
2019-05-19T21:58:56.625Z,49.47
2019-05-19T22:01:29.225Z,49.17
2019-05-19T22:03:59.324Z,50.17
2019-05-19T22:06:31.149Z,48.53
2019-05-19T22:09:01.323Z,49.67
2019-05-19T22:11:32.394Z,52.47
2019-05-19T22:14:02.701Z,56.73
2019-05-19T22:16:32.832Z,58.33
2019-05-19T22:19:03.094Z,59.57
2019-05-19T22:21:33.207Z,54.90
2019-05-19T22:24:03.403Z,57.00
2019-05-19T22:26:33.537Z,55.37
2019-05-19T22:29:03.733Z,58.43
2019-05-19T22:31:36.926Z,58.63
2019-05-19T22:34:05.884Z,60.03
2019-05-19T22:36:36.014Z,61.97
2019-05-19T22:39:07.161Z,65.17
2019-05-19T22:41:37.416Z,64.33
2019-05-19T22:44:07.633Z,67.67
2019-05-19T22:46:37.726Z,66.90
2019-05-19T22:49:08.741Z,76.23
2019-05-19T22:51:38.830Z,83.53
2019-05-19T22:54:09.010Z,81.17
2019-05-19T22:56:39.253Z,86.13
2019-05-19T22:59:19.216Z,84.30
2019-05-19T23:01:51.491Z,83.07
2019-05-19T23:04:13.304Z,79.63
2019-05-19T23:06:43.436Z,77.47
2019-05-19T23:09:13.666Z,80.63
2019-05-19T23:11:45.393Z,73.20
2019-05-19T23:14:15.696Z,77.57
2019-05-19T23:16:45.820Z,73.30
2019-05-19T23:19:15.965Z,77.20
2019-05-19T23:21:46.030Z,77.97
2019-05-19T23:24:16.132Z,75.23
2019-05-19T23:26:46.303Z,78.70
2019-05-19T23:29:16.474Z,69.60
2019-05-19T23:31:46.662Z,73.57
2019-05-19T23:34:16.756Z,70.33
2019-05-19T23:36:46.931Z,74.63
2019-05-19T23:39:17.219Z,71.33
2019-05-19T23:41:47.886Z,71.00
2019-05-19T23:44:18.022Z,68.93
2019-05-19T23:46:48.307Z,69.17
2019-05-19T23:49:18.564Z,76.60
2019-05-19T23:51:49.222Z,66.43
2019-05-19T23:54:19.366Z,71.37
2019-05-19T23:56:49.737Z,71.93
2019-05-19T23:59:19.838Z,66.77
